Addison, Alabama
Current Conditions -  °F | °C
As of 8:35 AM on Friday 28 Nov 2014 (Local Time) from KCMD Reporting Station
Clear Clear  
Wind Chill: 31°   Ceiling: Unl
Heat Index: 31°   Visibility: 10mi
Dew Point: 22°   Wind: 0mph
Humidity: 67%   Direction: NA
Pressure: 30.45"   Gusts: NA
Location:  34.2°N, 87.18°W
Report Text: KCMD 281435Z AUTO 00000KT 10SM CLR 00/M06 A3045 RMK AO2 T10031057
Loading
Personal Weather Stations






























Interactive Weather Map New forecast layout! Learn more

10-Day Weather Forecast

Advertisements
Track Severe Weather on mobile